sensor_id;sensor_type;location;lat;lon;timestamp;pressure;altitude;pressure_sealevel;temperature
80246;BMP280;69558;39.208;-77.226;2023-12-29T00:00:41;99228.47;;;15.55
80246;BMP280;69558;39.208;-77.226;2023-12-29T00:03:07;99223.44;;;15.54
80246;BMP280;69558;39.208;-77.226;2023-12-29T00:05:33;99235.50;;;15.55
80246;BMP280;69558;39.208;-77.226;2023-12-29T00:07:59;99232.13;;;15.54
80246;BMP280;69558;39.208;-77.226;2023-12-29T00:10:25;99233.50;;;15.57
80246;BMP280;69558;39.208;-77.226;2023-12-29T00:12:51;99239.75;;;15.56
80246;BMP280;69558;39.208;-77.226;2023-12-29T00:15:20;99237.13;;;15.56
80246;BMP280;69558;39.208;-77.226;2023-12-29T00:17:45;99247.56;;;15.56
80246;BMP280;69558;39.208;-77.226;2023-12-29T00:20:12;99245.97;;;15.55
80246;BMP280;69558;39.208;-77.226;2023-12-29T00:22:38;99247.56;;;15.56
80246;BMP280;69558;39.208;-77.226;2023-12-29T00:25:04;99252.00;;;15.55
80246;BMP280;69558;39.208;-77.226;2023-12-29T00:27:31;99243.53;;;15.53
80246;BMP280;69558;39.208;-77.226;2023-12-29T00:29:56;99241.13;;;15.52
80246;BMP280;69558;39.208;-77.226;2023-12-29T00:32:22;99239.31;;;15.52
80246;BMP280;69558;39.208;-77.226;2023-12-29T00:34:48;99250.41;;;15.54
80246;BMP280;69558;39.208;-77.226;2023-12-29T00:37:14;99250.41;;;15.54
80246;BMP280;69558;39.208;-77.226;2023-12-29T00:39:40;99247.81;;;15.54
80246;BMP280;69558;39.208;-77.226;2023-12-29T00:42:06;99247.97;;;15.53
80246;BMP280;69558;39.208;-77.226;2023-12-29T00:44:33;99244.34;;;15.54
80246;BMP280;69558;39.208;-77.226;2023-12-29T00:46:59;99240.13;;;15.53
80246;BMP280;69558;39.208;-77.226;2023-12-29T00:49:26;99246.16;;;15.53
80246;BMP280;69558;39.208;-77.226;2023-12-29T00:51:53;99241.75;;;15.54
80246;BMP280;69558;39.208;-77.226;2023-12-29T00:54:19;99232.66;;;15.50
80246;BMP280;69558;39.208;-77.226;2023-12-29T00:56:49;99237.50;;;15.53
80246;BMP280;69558;39.208;-77.226;2023-12-29T00:59:15;99236.47;;;15.47
80246;BMP280;69558;39.208;-77.226;2023-12-29T01:01:41;99244.13;;;15.49
80246;BMP280;69558;39.208;-77.226;2023-12-29T01:04:07;99240.31;;;15.51
80246;BMP280;69558;39.208;-77.226;2023-12-29T01:06:33;99239.50;;;15.51
80246;BMP280;69558;39.208;-77.226;2023-12-29T01:08:59;99263.84;;;15.51
80246;BMP280;69558;39.208;-77.226;2023-12-29T01:11:24;99255.81;;;15.53
80246;BMP280;69558;39.208;-77.226;2023-12-29T01:13:50;99255.00;;;15.52
80246;BMP280;69558;39.208;-77.226;2023-12-29T01:16:16;99260.22;;;15.52
80246;BMP280;69558;39.208;-77.226;2023-12-29T01:18:42;99259.22;;;15.53
80246;BMP280;69558;39.208;-77.226;2023-12-29T01:21:08;99261.03;;;15.53
80246;BMP280;69558;39.208;-77.226;2023-12-29T01:23:34;99257.59;;;15.52
80246;BMP280;69558;39.208;-77.226;2023-12-29T01:25:59;99259.41;;;15.52
80246;BMP280;69558;39.208;-77.226;2023-12-29T01:28:25;99253.56;;;15.50
80246;BMP280;69558;39.208;-77.226;2023-12-29T01:30:51;99256.00;;;15.51
80246;BMP280;69558;39.208;-77.226;2023-12-29T01:33:17;99247.34;;;15.51
80246;BMP280;69558;39.208;-77.226;2023-12-29T01:35:43;99255.19;;;15.51
80246;BMP280;69558;39.208;-77.226;2023-12-29T01:38:09;99247.34;;;15.51
80246;BMP280;69558;39.208;-77.226;2023-12-29T01:40:45;99247.16;;;15.52
80246;BMP280;69558;39.208;-77.226;2023-12-29T01:43:12;99251.75;;;15.50
80246;BMP280;69558;39.208;-77.226;2023-12-29T01:45:38;99238.69;;;15.50
80246;BMP280;69558;39.208;-77.226;2023-12-29T01:48:05;99254.19;;;15.52
80246;BMP280;69558;39.208;-77.226;2023-12-29T01:50:31;99258.59;;;15.51
80246;BMP280;69558;39.208;-77.226;2023-12-29T01:53:01;99255.19;;;15.51
80246;BMP280;69558;39.208;-77.226;2023-12-29T01:55:29;99254.56;;;15.49
80246;BMP280;69558;39.208;-77.226;2023-12-29T01:57:56;99253.56;;;15.50
80246;BMP280;69558;39.208;-77.226;2023-12-29T02:00:22;99256.00;;;15.51
80246;BMP280;69558;39.208;-77.226;2023-12-29T02:02:48;99254.19;;;15.52
80246;BMP280;69558;39.208;-77.226;2023-12-29T02:05:14;99243.31;;;15.48
80246;BMP280;69558;39.208;-77.226;2023-12-29T02:07:42;99247.16;;;15.52
80246;BMP280;69558;39.208;-77.226;2023-12-29T02:10:08;99242.94;;;15.51
80246;BMP280;69558;39.208;-77.226;2023-12-29T02:12:36;99239.31;;;15.52
80246;BMP280;69558;39.208;-77.226;2023-12-29T02:15:04;99231.47;;;15.52
80246;BMP280;69558;39.208;-77.226;2023-12-29T02:17:35;99230.66;;;15.52
80246;BMP280;69558;39.208;-77.226;2023-12-29T02:20:04;99233.09;;;15.53
80246;BMP280;69558;39.208;-77.226;2023-12-29T02:22:30;99228.06;;;15.52
80246;BMP280;69558;39.208;-77.226;2023-12-29T02:24:56;99229.84;;;15.51
80246;BMP280;69558;39.208;-77.226;2023-12-29T02:27:43;99231.47;;;15.52
80246;BMP280;69558;39.208;-77.226;2023-12-29T02:33:05;99221.59;;;15.48
80246;BMP280;69558;39.208;-77.226;2023-12-29T02:35:35;99221.22;;;15.51
80246;BMP280;69558;39.208;-77.226;2023-12-29T02:38:03;99219.41;;;15.51
80246;BMP280;69558;39.208;-77.226;2023-12-29T02:40:29;99223.63;;;15.52
80246;BMP280;69558;39.208;-77.226;2023-12-29T02:42:55;99223.63;;;15.52
80246;BMP280;69558;39.208;-77.226;2023-12-29T02:45:21;99216.78;;;15.51
80246;BMP280;69558;39.208;-77.226;2023-12-29T02:47:48;99226.63;;;15.49
80246;BMP280;69558;39.208;-77.226;2023-12-29T02:50:14;99229.84;;;15.51
80246;BMP280;69558;39.208;-77.226;2023-12-29T02:52:40;99230.84;;;15.50
80246;BMP280;69558;39.208;-77.226;2023-12-29T02:55:06;99231.47;;;15.52
80246;BMP280;69558;39.208;-77.226;2023-12-29T02:57:32;99227.63;;;15.48
80246;BMP280;69558;39.208;-77.226;2023-12-29T02:59:58;99229.84;;;15.51
80246;BMP280;69558;39.208;-77.226;2023-12-29T03:02:24;99242.13;;;15.51
80246;BMP280;69558;39.208;-77.226;2023-12-29T03:04:50;99244.72;;;15.51
80246;BMP280;69558;39.208;-77.226;2023-12-29T03:07:16;99250.75;;;15.51
80246;BMP280;69558;39.208;-77.226;2023-12-29T03:09:42;99253.38;;;15.51
80246;BMP280;69558;39.208;-77.226;2023-12-29T03:12:08;99261.22;;;15.51
80246;BMP280;69558;39.208;-77.226;2023-12-29T03:14:34;99254.56;;;15.49
80246;BMP280;69558;39.208;-77.226;2023-12-29T03:16:59;99250.97;;;15.50
80246;BMP280;69558;39.208;-77.226;2023-12-29T03:19:25;99249.16;;;15.50
80246;BMP280;69558;39.208;-77.226;2023-12-29T03:21:53;99250.16;;;15.49
80246;BMP280;69558;39.208;-77.226;2023-12-29T03:24:20;99259.78;;;15.49
80246;BMP280;69558;39.208;-77.226;2023-12-29T03:26:46;99249.34;;;15.49
80246;BMP280;69558;39.208;-77.226;2023-12-29T03:29:12;99238.22;;;15.40
80246;BMP280;69558;39.208;-77.226;2023-12-29T03:31:38;99252.75;;;15.49
80246;BMP280;69558;39.208;-77.226;2023-12-29T03:34:05;99272.06;;;15.48
80246;BMP280;69558;39.208;-77.226;2023-12-29T03:36:31;99262.41;;;15.49
80246;BMP280;69558;39.208;-77.226;2023-12-29T03:38:57;99257.19;;;15.49
80246;BMP280;69558;39.208;-77.226;2023-12-29T03:41:23;99252.16;;;15.47
80246;BMP280;69558;39.208;-77.226;2023-12-29T03:43:49;99258.00;;;15.49
80246;BMP280;69558;39.208;-77.226;2023-12-29T03:46:19;99257.00;;;15.50
80246;BMP280;69558;39.208;-77.226;2023-12-29T03:48:46;99261.41;;;15.50
80246;BMP280;69558;39.208;-77.226;2023-12-29T03:51:12;99266.63;;;15.50
80246;BMP280;69558;39.208;-77.226;2023-12-29T03:53:38;99262.41;;;15.49
80246;BMP280;69558;39.208;-77.226;2023-12-29T03:56:22;99270.06;;;15.50
80246;BMP280;69558;39.208;-77.226;2023-12-29T03:58:48;99259.78;;;15.49
80246;BMP280;69558;39.208;-77.226;2023-12-29T04:01:15;99256.38;;;15.48
80246;BMP280;69558;39.208;-77.226;2023-12-29T04:03:41;99248.72;;;15.47
80246;BMP280;69558;39.208;-77.226;2023-12-29T04:06:07;99243.50;;;15.47
80246;BMP280;69558;39.208;-77.226;2023-12-29T04:08:34;99245.13;;;15.48
80246;BMP280;69558;39.208;-77.226;2023-12-29T04:11:00;99250.53;;;15.46
80246;BMP280;69558;39.208;-77.226;2023-12-29T04:13:26;99254.56;;;15.49
80246;BMP280;69558;39.208;-77.226;2023-12-29T04:15:52;99258.00;;;15.49
80246;BMP280;69558;39.208;-77.226;2023-12-29T04:18:23;99249.34;;;15.49
80246;BMP280;69558;39.208;-77.226;2023-12-29T04:20:49;99251.97;;;15.49
80246;BMP280;69558;39.208;-77.226;2023-12-29T04:23:15;99246.91;;;15.47
80246;BMP280;69558;39.208;-77.226;2023-12-29T04:25:41;99242.88;;;15.45
80246;BMP280;69558;39.208;-77.226;2023-12-29T04:28:07;99242.69;;;15.46
80246;BMP280;69558;39.208;-77.226;2023-12-29T04:30:34;99251.34;;;15.47
80246;BMP280;69558;39.208;-77.226;2023-12-29T04:33:01;99248.72;;;15.47
80246;BMP280;69558;39.208;-77.226;2023-12-29T04:35:27;99251.16;;;15.48
80246;BMP280;69558;39.208;-77.226;2023-12-29T04:37:53;99252.97;;;15.48
80246;BMP280;69558;39.208;-77.226;2023-12-29T04:40:19;99240.69;;;15.48
80246;BMP280;69558;39.208;-77.226;2023-12-29T04:42:45;99245.91;;;15.48
80246;BMP280;69558;39.208;-77.226;2023-12-29T04:45:11;99247.53;;;15.49
80246;BMP280;69558;39.208;-77.226;2023-12-29T04:47:38;99244.94;;;15.49
80246;BMP280;69558;39.208;-77.226;2023-12-29T04:50:04;99243.94;;;15.50
80246;BMP280;69558;39.208;-77.226;2023-12-29T04:52:31;99245.31;;;15.46
80246;BMP280;69558;39.208;-77.226;2023-12-29T04:54:58;99253.75;;;15.48
80246;BMP280;69558;39.208;-77.226;2023-12-29T04:57:24;99255.56;;;15.48
80246;BMP280;69558;39.208;-77.226;2023-12-29T04:59:50;99243.31;;;15.48
80246;BMP280;69558;39.208;-77.226;2023-12-29T05:02:16;99246.72;;;15.49
80246;BMP280;69558;39.208;-77.226;2023-12-29T05:04:42;99247.91;;;15.46
80246;BMP280;69558;39.208;-77.226;2023-12-29T05:07:08;99247.72;;;15.48
80246;BMP280;69558;39.208;-77.226;2023-12-29T05:09:34;99243.31;;;15.48
80246;BMP280;69558;39.208;-77.226;2023-12-29T05:12:00;99231.59;;;15.44
80246;BMP280;69558;39.208;-77.226;2023-12-29T05:14:26;99227.00;;;15.46
80246;BMP280;69558;39.208;-77.226;2023-12-29T05:16:52;99231.84;;;15.49
80246;BMP280;69558;39.208;-77.226;2023-12-29T05:19:18;99235.28;;;15.50
80246;BMP280;69558;39.208;-77.226;2023-12-29T05:21:44;99234.47;;;15.49
80246;BMP280;69558;39.208;-77.226;2023-12-29T05:24:10;99226.81;;;15.48
80246;BMP280;69558;39.208;-77.226;2023-12-29T05:26:36;99223.59;;;15.46
80246;BMP280;69558;39.208;-77.226;2023-12-29T05:29:02;99224.59;;;15.45
80246;BMP280;69558;39.208;-77.226;2023-12-29T05:31:28;99238.69;;;15.50
80246;BMP280;69558;39.208;-77.226;2023-12-29T05:33:56;99230.25;;;15.48
80246;BMP280;69558;39.208;-77.226;2023-12-29T05:36:22;99230.84;;;15.50
80246;BMP280;69558;39.208;-77.226;2023-12-29T05:38:48;99224.22;;;15.48
80246;BMP280;69558;39.208;-77.226;2023-12-29T05:41:14;99218.97;;;15.48
80246;BMP280;69558;39.208;-77.226;2023-12-29T05:43:40;99221.41;;;15.49
80246;BMP280;69558;39.208;-77.226;2023-12-29T05:46:12;99220.59;;;15.49
80246;BMP280;69558;39.208;-77.226;2023-12-29T05:48:38;99233.47;;;15.50
80246;BMP280;69558;39.208;-77.226;2023-12-29T05:51:12;99233.28;;;15.52
80246;BMP280;69558;39.208;-77.226;2023-12-29T05:53:41;99230.84;;;15.50
80246;BMP280;69558;39.208;-77.226;2023-12-29T05:56:07;99223.03;;;15.50
80246;BMP280;69558;39.208;-77.226;2023-12-29T05:58:33;99224.81;;;15.50
80246;BMP280;69558;39.208;-77.226;2023-12-29T06:00:59;99228.25;;;15.50
80246;BMP280;69558;39.208;-77.226;2023-12-29T06:03:26;99220.59;;;15.49
80246;BMP280;69558;39.208;-77.226;2023-12-29T06:05:52;99226.44;;;15.51
80246;BMP280;69558;39.208;-77.226;2023-12-29T06:08:18;99233.28;;;15.52
80246;BMP280;69558;39.208;-77.226;2023-12-29T06:10:44;99232.47;;;15.51
80246;BMP280;69558;39.208;-77.226;2023-12-29T06:13:10;99229.06;;;15.51
80246;BMP280;69558;39.208;-77.226;2023-12-29T06:15:36;99226.63;;;15.49
80246;BMP280;69558;39.208;-77.226;2023-12-29T06:18:02;99231.47;;;15.52
80246;BMP280;69558;39.208;-77.226;2023-12-29T06:20:28;99227.84;;;15.53
80246;BMP280;69558;39.208;-77.226;2023-12-29T06:22:55;99227.25;;;15.51
80246;BMP280;69558;39.208;-77.226;2023-12-29T06:25:21;99221.22;;;15.51
80246;BMP280;69558;39.208;-77.226;2023-12-29T06:27:47;99220.22;;;15.52
80246;BMP280;69558;39.208;-77.226;2023-12-29T06:30:14;99212.38;;;15.52
80246;BMP280;69558;39.208;-77.226;2023-12-29T06:32:40;99213.19;;;15.52
80246;BMP280;69558;39.208;-77.226;2023-12-29T06:35:07;99215.59;;;15.54
80246;BMP280;69558;39.208;-77.226;2023-12-29T06:37:36;99213.19;;;15.52
80246;BMP280;69558;39.208;-77.226;2023-12-29T06:40:04;99209.94;;;15.50
80246;BMP280;69558;39.208;-77.226;2023-12-29T06:42:30;99218.41;;;15.52
80246;BMP280;69558;39.208;-77.226;2023-12-29T06:44:57;99215.19;;;15.50
80246;BMP280;69558;39.208;-77.226;2023-12-29T06:47:24;99225.44;;;15.52
80246;BMP280;69558;39.208;-77.226;2023-12-29T06:49:50;99233.28;;;15.52
80246;BMP280;69558;39.208;-77.226;2023-12-29T06:52:16;99229.84;;;15.51
80246;BMP280;69558;39.208;-77.226;2023-12-29T06:54:42;99228.84;;;15.52
80246;BMP280;69558;39.208;-77.226;2023-12-29T06:57:08;99223.81;;;15.51
80246;BMP280;69558;39.208;-77.226;2023-12-29T06:59:34;99228.25;;;15.50
80246;BMP280;69558;39.208;-77.226;2023-12-29T07:02:00;99229.06;;;15.51
80246;BMP280;69558;39.208;-77.226;2023-12-29T07:04:26;99227.44;;;15.50
80246;BMP280;69558;39.208;-77.226;2023-12-29T07:06:51;99221.41;;;15.49
80246;BMP280;69558;39.208;-77.226;2023-12-29T07:09:17;99224.81;;;15.50
80246;BMP280;69558;39.208;-77.226;2023-12-29T07:11:52;99236.09;;;15.50
80246;BMP280;69558;39.208;-77.226;2023-12-29T07:14:18;99229.25;;;15.49
80246;BMP280;69558;39.208;-77.226;2023-12-29T07:16:44;99241.31;;;15.50
80246;BMP280;69558;39.208;-77.226;2023-12-29T07:19:10;99244.94;;;15.49
80246;BMP280;69558;39.208;-77.226;2023-12-29T07:21:36;99245.91;;;15.48
80246;BMP280;69558;39.208;-77.226;2023-12-29T07:24:01;99244.13;;;15.49
80246;BMP280;69558;39.208;-77.226;2023-12-29T07:26:28;99246.72;;;15.49
80246;BMP280;69558;39.208;-77.226;2023-12-29T07:28:54;99251.34;;;15.47
80246;BMP280;69558;39.208;-77.226;2023-12-29T07:31:20;99258.19;;;15.48
80246;BMP280;69558;39.208;-77.226;2023-12-29T07:33:47;99253.94;;;15.47
80246;BMP280;69558;39.208;-77.226;2023-12-29T07:36:13;99247.72;;;15.48
80246;BMP280;69558;39.208;-77.226;2023-12-29T07:38:39;99246.13;;;15.47
80246;BMP280;69558;39.208;-77.226;2023-12-29T07:41:04;99254.94;;;15.46
80246;BMP280;69558;39.208;-77.226;2023-12-29T07:43:31;99254.16;;;15.45
80246;BMP280;69558;39.208;-77.226;2023-12-29T07:45:58;99265.41;;;15.46
80246;BMP280;69558;39.208;-77.226;2023-12-29T07:48:24;99267.00;;;15.47
80246;BMP280;69558;39.208;-77.226;2023-12-29T07:50:50;99267.00;;;15.47
80246;BMP280;69558;39.208;-77.226;2023-12-29T07:53:16;99271.44;;;15.46
80246;BMP280;69558;39.208;-77.226;2023-12-29T07:55:42;99276.47;;;15.48
80246;BMP280;69558;39.208;-77.226;2023-12-29T07:58:09;99269.81;;;15.45
80246;BMP280;69558;39.208;-77.226;2023-12-29T08:00:36;99272.25;;;15.47
80246;BMP280;69558;39.208;-77.226;2023-12-29T08:03:02;99272.06;;;15.48
80246;BMP280;69558;39.208;-77.226;2023-12-29T08:05:28;99272.25;;;15.47
80246;BMP280;69558;39.208;-77.226;2023-12-29T08:07:54;99277.47;;;15.47
80246;BMP280;69558;39.208;-77.226;2023-12-29T08:10:20;99271.88;;;15.50
80246;BMP280;69558;39.208;-77.226;2023-12-29T08:12:46;99276.47;;;15.48
80246;BMP280;69558;39.208;-77.226;2023-12-29T08:15:12;99274.66;;;15.48
80246;BMP280;69558;39.208;-77.226;2023-12-29T08:17:38;99272.88;;;15.49
80246;BMP280;69558;39.208;-77.226;2023-12-29T08:20:05;99250.91;;;15.43
80246;BMP280;69558;39.208;-77.226;2023-12-29T08:22:31;99266.03;;;15.48
80246;BMP280;69558;39.208;-77.226;2023-12-29T08:24:58;99258.00;;;15.49
80246;BMP280;69558;39.208;-77.226;2023-12-29T08:27:27;99269.25;;;15.50
80246;BMP280;69558;39.208;-77.226;2023-12-29T08:29:53;99268.63;;;15.48
80246;BMP280;69558;39.208;-77.226;2023-12-29T08:32:19;99256.56;;;15.47
80246;BMP280;69558;39.208;-77.226;2023-12-29T08:34:46;99262.22;;;15.50
80246;BMP280;69558;39.208;-77.226;2023-12-29T08:37:12;99258.78;;;15.50
80246;BMP280;69558;39.208;-77.226;2023-12-29T08:39:38;99264.22;;;15.48
80246;BMP280;69558;39.208;-77.226;2023-12-29T08:42:04;99258.59;;;15.51
80246;BMP280;69558;39.208;-77.226;2023-12-29T08:44:29;99260.41;;;15.51
80246;BMP280;69558;39.208;-77.226;2023-12-29T08:46:55;99261.22;;;15.51
80246;BMP280;69558;39.208;-77.226;2023-12-29T08:49:21;99251.97;;;15.49
80246;BMP280;69558;39.208;-77.226;2023-12-29T08:51:47;99249.16;;;15.50
80246;BMP280;69558;39.208;-77.226;2023-12-29T08:54:13;99243.13;;;15.50
80246;BMP280;69558;39.208;-77.226;2023-12-29T08:56:39;99250.75;;;15.51
80246;BMP280;69558;39.208;-77.226;2023-12-29T08:59:05;99237.88;;;15.50
80246;BMP280;69558;39.208;-77.226;2023-12-29T09:01:31;99241.50;;;15.49
80246;BMP280;69558;39.208;-77.226;2023-12-29T09:03:58;99244.94;;;15.49
80246;BMP280;69558;39.208;-77.226;2023-12-29T09:06:25;99246.72;;;15.49
80246;BMP280;69558;39.208;-77.226;2023-12-29T09:08:51;99255.19;;;15.51
80246;BMP280;69558;39.208;-77.226;2023-12-29T09:11:17;99259.41;;;15.52
80246;BMP280;69558;39.208;-77.226;2023-12-29T09:13:43;99253.75;;;15.48
80246;BMP280;69558;39.208;-77.226;2023-12-29T09:16:09;99267.63;;;15.49
80246;BMP280;69558;39.208;-77.226;2023-12-29T09:18:35;99270.25;;;15.49
80246;BMP280;69558;39.208;-77.226;2023-12-29T09:21:01;99271.88;;;15.50
80246;BMP280;69558;39.208;-77.226;2023-12-29T09:23:27;99272.47;;;15.52
80246;BMP280;69558;39.208;-77.226;2023-12-29T09:25:53;99268.44;;;15.49
80246;BMP280;69558;39.208;-77.226;2023-12-29T09:28:19;99267.25;;;15.52
80246;BMP280;69558;39.208;-77.226;2023-12-29T09:30:45;99263.84;;;15.51
80246;BMP280;69558;39.208;-77.226;2023-12-29T09:33:11;99271.66;;;15.51
80246;BMP280;69558;39.208;-77.226;2023-12-29T09:35:39;99270.88;;;15.51
80246;BMP280;69558;39.208;-77.226;2023-12-29T09:38:05;99264.03;;;15.50
80246;BMP280;69558;39.208;-77.226;2023-12-29T09:40:30;99266.63;;;15.50
80246;BMP280;69558;39.208;-77.226;2023-12-29T09:42:56;99260.41;;;15.51
80246;BMP280;69558;39.208;-77.226;2023-12-29T09:45:24;99259.00;;;15.48
80246;BMP280;69558;39.208;-77.226;2023-12-29T09:47:52;99271.06;;;15.49
80246;BMP280;69558;39.208;-77.226;2023-12-29T09:50:21;99273.66;;;15.49
80246;BMP280;69558;39.208;-77.226;2023-12-29T09:52:49;99275.28;;;15.50
80246;BMP280;69558;39.208;-77.226;2023-12-29T09:55:18;99271.06;;;15.49
80246;BMP280;69558;39.208;-77.226;2023-12-29T09:57:47;99263.03;;;15.51
80246;BMP280;69558;39.208;-77.226;2023-12-29T10:00:15;99260.59;;;15.49
80246;BMP280;69558;39.208;-77.226;2023-12-29T10:02:41;99267.38;;;15.44
80246;BMP280;69558;39.208;-77.226;2023-12-29T10:05:08;99274.03;;;15.46
80246;BMP280;69558;39.208;-77.226;2023-12-29T10:07:39;99272.06;;;15.48
80246;BMP280;69558;39.208;-77.226;2023-12-29T10:10:06;99266.59;;;15.43
80246;BMP280;69558;39.208;-77.226;2023-12-29T10:12:32;99271.44;;;15.46
80246;BMP280;69558;39.208;-77.226;2023-12-29T10:15:12;99269.63;;;15.47
80246;BMP280;69558;39.208;-77.226;2023-12-29T10:23:00;99264.22;;;15.48
80246;BMP280;69558;39.208;-77.226;2023-12-29T10:25:27;99258.19;;;15.48
80246;BMP280;69558;39.208;-77.226;2023-12-29T10:27:55;99263.41;;;15.48
80246;BMP280;69558;39.208;-77.226;2023-12-29T10:30:21;99263.59;;;15.46
80246;BMP280;69558;39.208;-77.226;2023-12-29T10:32:52;99254.75;;;15.47
80246;BMP280;69558;39.208;-77.226;2023-12-29T10:35:18;99268.81;;;15.46
80246;BMP280;69558;39.208;-77.226;2023-12-29T10:37:45;99269.44;;;15.48
80246;BMP280;69558;39.208;-77.226;2023-12-29T10:40:21;99269.44;;;15.48
80246;BMP280;69558;39.208;-77.226;2023-12-29T10:42:54;99274.84;;;15.47
80246;BMP280;69558;39.208;-77.226;2023-12-29T10:45:21;99276.00;;;15.44
80246;BMP280;69558;39.208;-77.226;2023-12-29T10:47:50;99277.03;;;15.43
80246;BMP280;69558;39.208;-77.226;2023-12-29T10:50:16;99275.66;;;15.47
80246;BMP280;69558;39.208;-77.226;2023-12-29T10:52:42;99282.88;;;15.45
80246;BMP280;69558;39.208;-77.226;2023-12-29T10:55:10;99282.88;;;15.45
80246;BMP280;69558;39.208;-77.226;2023-12-29T10:57:40;99294.16;;;15.46
80246;BMP280;69558;39.208;-77.226;2023-12-29T11:00:07;99300.38;;;15.45
80246;BMP280;69558;39.208;-77.226;2023-12-29T11:02:35;99303.59;;;15.47
80246;BMP280;69558;39.208;-77.226;2023-12-29T11:05:08;99313.25;;;15.46
80246;BMP280;69558;39.208;-77.226;2023-12-29T11:07:36;99300.94;;;15.40
80246;BMP280;69558;39.208;-77.226;2023-12-29T11:10:04;99310.81;;;15.45
80246;BMP280;69558;39.208;-77.226;2023-12-29T11:12:37;99318.84;;;15.43
80246;BMP280;69558;39.208;-77.226;2023-12-29T11:15:05;99325.66;;;15.44
80246;BMP280;69558;39.208;-77.226;2023-12-29T11:17:33;99329.91;;;15.45
80246;BMP280;69558;39.208;-77.226;2023-12-29T11:20:00;99332.69;;;15.44
80246;BMP280;69558;39.208;-77.226;2023-12-29T11:22:31;99332.69;;;15.44
80246;BMP280;69558;39.208;-77.226;2023-12-29T11:24:58;99325.88;;;15.43
80246;BMP280;69558;39.208;-77.226;2023-12-29T11:27:29;99327.47;;;15.44
80246;BMP280;69558;39.208;-77.226;2023-12-29T11:29:58;99324.06;;;15.43
80246;BMP280;69558;39.208;-77.226;2023-12-29T11:32:55;99329.31;;;15.43
80246;BMP280;69558;39.208;-77.226;2023-12-29T11:35:42;99309.59;;;15.41
80246;BMP280;69558;39.208;-77.226;2023-12-29T11:39:07;99309.41;;;15.42
80246;BMP280;69558;39.208;-77.226;2023-12-29T11:43:58;99306.97;;;15.41
80246;BMP280;69558;39.208;-77.226;2023-12-29T11:46:43;99320.84;;;15.41
80246;BMP280;69558;39.208;-77.226;2023-12-29T11:49:10;99322.00;;;15.39
80246;BMP280;69558;39.208;-77.226;2023-12-29T11:51:41;99335.06;;;15.39
80246;BMP280;69558;39.208;-77.226;2023-12-29T11:54:08;99338.47;;;15.39
80246;BMP280;69558;39.208;-77.226;2023-12-29T11:56:35;99337.69;;;15.39
80246;BMP280;69558;39.208;-77.226;2023-12-29T11:59:15;99331.66;;;15.38
80246;BMP280;69558;39.208;-77.226;2023-12-29T12:01:41;99331.66;;;15.38
80246;BMP280;69558;39.208;-77.226;2023-12-29T12:04:40;99329.69;;;15.40
80246;BMP280;69558;39.208;-77.226;2023-12-29T12:07:16;99324.63;;;15.39
80246;BMP280;69558;39.208;-77.226;2023-12-29T12:09:42;99319.59;;;15.37
80246;BMP280;69558;39.208;-77.226;2023-12-29T12:12:10;99322.00;;;15.39
80246;BMP280;69558;39.208;-77.226;2023-12-29T12:14:50;99315.97;;;15.38
80246;BMP280;69558;39.208;-77.226;2023-12-29T12:17:31;99324.47;;;15.40
80246;BMP280;69558;39.208;-77.226;2023-12-29T12:20:08;99325.63;;;15.38
80246;BMP280;69558;39.208;-77.226;2023-12-29T12:22:35;99337.69;;;15.39
80246;BMP280;69558;39.208;-77.226;2023-12-29T12:25:02;99337.53;;;15.40
80246;BMP280;69558;39.208;-77.226;2023-12-29T12:27:29;99330.88;;;15.38
80246;BMP280;69558;39.208;-77.226;2023-12-29T12:29:57;99340.13;;;15.40
80246;BMP280;69558;39.208;-77.226;2023-12-29T12:32:28;99338.47;;;15.39
80246;BMP280;69558;39.208;-77.226;2023-12-29T12:34:58;99335.88;;;15.39
80246;BMP280;69558;39.208;-77.226;2023-12-29T12:37:26;99334.09;;;15.40
80246;BMP280;69558;39.208;-77.226;2023-12-29T12:39:53;99335.06;;;15.39
80246;BMP280;69558;39.208;-77.226;2023-12-29T12:42:20;99333.25;;;15.39
80246;BMP280;69558;39.208;-77.226;2023-12-29T12:45:05;99343.38;;;15.42
80246;BMP280;69558;39.208;-77.226;2023-12-29T12:47:34;99335.28;;;15.37
80246;BMP280;69558;39.208;-77.226;2023-12-29T12:50:01;99336.09;;;15.38
80246;BMP280;69558;39.208;-77.226;2023-12-29T12:52:32;99358.41;;;15.40
80246;BMP280;69558;39.208;-77.226;2023-12-29T12:54:58;99351.97;;;15.36
80246;BMP280;69558;39.208;-77.226;2023-12-29T12:57:24;99357.19;;;15.36
80246;BMP280;69558;39.208;-77.226;2023-12-29T12:59:51;99352.94;;;15.35
80246;BMP280;69558;39.208;-77.226;2023-12-29T13:02:18;99349.16;;;15.38
80246;BMP280;69558;39.208;-77.226;2023-12-29T13:04:46;99358.81;;;15.37
80246;BMP280;69558;39.208;-77.226;2023-12-29T13:07:15;99354.56;;;15.36
80246;BMP280;69558;39.208;-77.226;2023-12-29T13:09:41;99363.41;;;15.35
80246;BMP280;69558;39.208;-77.226;2023-12-29T13:12:12;99369.84;;;15.39
80246;BMP280;69558;39.208;-77.226;2023-12-29T13:14:39;99371.06;;;15.37
80246;BMP280;69558;39.208;-77.226;2023-12-29T13:17:15;99375.06;;;15.39
80246;BMP280;69558;39.208;-77.226;2023-12-29T13:19:42;99374.47;;;15.37
80246;BMP280;69558;39.208;-77.226;2023-12-29T13:22:10;99363.41;;;15.35
80246;BMP280;69558;39.208;-77.226;2023-12-29T13:24:44;99374.47;;;15.37
80246;BMP280;69558;39.208;-77.226;2023-12-29T13:27:10;99370.84;;;15.38
80246;BMP280;69558;39.208;-77.226;2023-12-29T13:29:38;99370.06;;;15.38
80246;BMP280;69558;39.208;-77.226;2023-12-29T13:32:11;99359.59;;;15.38
80246;BMP280;69558;39.208;-77.226;2023-12-29T13:35:03;99359.78;;;15.36
80246;BMP280;69558;39.208;-77.226;2023-12-29T13:37:36;99364.22;;;15.36
80246;BMP280;69558;39.208;-77.226;2023-12-29T13:40:15;99366.63;;;15.37
80246;BMP280;69558;39.208;-77.226;2023-12-29T13:42:45;99350.91;;;15.31
80246;BMP280;69558;39.208;-77.226;2023-12-29T13:45:12;99367.63;;;15.36
80246;BMP280;69558;39.208;-77.226;2023-12-29T13:47:41;99361.75;;;15.34
80246;BMP280;69558;39.208;-77.226;2023-12-29T13:50:09;99377.44;;;15.34
80246;BMP280;69558;39.208;-77.226;2023-12-29T13:52:36;99380.03;;;15.34
80246;BMP280;69558;39.208;-77.226;2023-12-29T13:55:05;99379.69;;;15.37
80246;BMP280;69558;39.208;-77.226;2023-12-29T13:57:36;99378.88;;;15.37